Time;durP1;ratioP1;P1;durP2;ratioP2;P2;SDS_P1;SDS_P2;PMS_P1;PMS_P2;Temp;Humidity;BMP_temperature;BMP_pressure;BME280_temperature;BME280_humidity;BME280_pressure;Samples;Min_cycle;Max_cycle;Signal;HPM_P1;HPM_P2
2021/08/02 00:01:28;;;;;;;9.70;1.48;;;;;;;12.95;85.85;100457.72;5069457;28;20051;-69
2021/08/02 00:04:03;;;;;;;9.65;2.20;;;;;;;12.93;86.25;100458.94;5069003;28;20033;-69
2021/08/02 00:06:54;;;;;;;6.97;2.10;;;;;;;12.83;86.46;100452.00;5069163;28;20101;-69
2021/08/02 00:09:24;;;;;;;8.57;1.77;;;;;;;12.73;86.91;100456.78;5070043;28;20058;-69
2021/08/02 00:12:00;;;;;;;4.93;2.20;;;;;;;12.71;87.73;100461.47;5052600;28;20408;-69
2021/08/02 00:14:27;;;;;;;5.07;1.55;;;;;;;12.64;87.24;100461.41;5069908;28;20067;-69
2021/08/02 00:16:53;;;;;;;5.50;1.90;;;;;;;12.59;88.11;100457.59;5052404;28;20369;-69
2021/08/02 00:19:20;;;;;;;6.60;1.88;;;;;;;12.58;88.80;100459.44;5068996;28;20266;-69
2021/08/02 00:21:46;;;;;;;9.98;2.25;;;;;;;12.53;88.61;100455.66;5069196;28;20033;-69
2021/08/02 00:24:12;;;;;;;8.30;2.38;;;;;;;12.56;88.73;100453.44;5068779;28;20032;-69
2021/08/02 00:26:38;;;;;;;;;;;;;;;12.59;88.32;100463.78;5070379;28;20402;-69
2021/08/02 00:29:04;;;;;;;;;;;;;;;12.58;88.63;100454.09;5069805;28;20006;-69
2021/08/02 00:31:29;;;;;;;9.60;1.75;;;;;;;12.55;89.03;100446.44;5069946;28;19912;-69
2021/08/02 00:33:55;;;;;;;7.55;1.85;;;;;;;12.59;88.83;100453.06;5069831;28;20040;-69
2021/08/02 00:36:39;;;;;;;4.63;2.00;;;;;;;12.65;88.59;100460.38;5069698;28;20045;-69
2021/08/02 00:39:06;;;;;;;4.88;1.75;;;;;;;12.74;88.20;100458.44;5069865;28;20274;-69
2021/08/02 00:41:34;;;;;;;10.82;3.80;;;;;;;12.73;88.09;100455.94;5068948;28;20107;-69
2021/08/02 00:44:18;;;;;;;7.78;1.75;;;;;;;12.77;88.21;100454.56;5069539;28;20037;-69
2021/08/02 00:46:51;;;;;;;10.40;1.92;;;;;;;12.76;87.50;100459.09;5068641;28;20033;-69
2021/08/02 00:49:23;;;;;;;13.18;2.67;;;;;;;12.77;87.64;100451.91;5072621;28;20032;-69
2021/08/02 00:51:53;;;;;;;8.88;2.22;;;;;;;12.74;87.29;100457.63;5056435;28;20035;-69
2021/08/02 00:54:22;;;;;;;5.75;1.80;;;;;;;12.74;87.64;100449.59;5072507;28;20021;-69
2021/08/02 00:56:50;;;;;;;7.20;1.88;;;;;;;12.76;87.18;100460.94;5072705;28;20036;-69
2021/08/02 00:59:16;;;;;;;8.57;1.90;;;;;;;12.84;86.69;100466.22;5072645;28;20477;-69
2021/08/02 01:01:43;;;;;;;7.10;2.22;;;;;;;12.80;87.14;100459.56;5072852;28;20033;-69
2021/08/02 01:04:11;;;;;;;6.82;2.55;;;;;;;12.84;87.37;100463.53;5055909;28;20128;-69
2021/08/02 01:06:39;;;;;;;7.38;1.88;;;;;;;12.88;86.52;100468.34;5073195;28;20033;-69
2021/08/02 01:09:06;;;;;;;7.97;1.77;;;;;;;12.86;86.06;100459.66;5073810;28;20032;-69
2021/08/02 01:11:34;;;;;;;7.07;1.67;;;;;;;12.89;85.50;100463.81;5055893;28;20060;-69
2021/08/02 01:14:06;;;;;;;8.40;1.65;;;;;;;12.92;85.44;100462.59;5072553;28;20032;-69
2021/08/02 01:16:35;;;;;;;6.18;1.42;;;;;;;12.92;85.08;100463.44;5073182;28;20028;-69
2021/08/02 01:19:09;;;;;;;6.35;1.58;;;;;;;12.96;85.43;100463.91;5055729;28;20035;-69
2021/08/02 01:21:39;;;;;;;8.02;1.60;;;;;;;12.96;85.57;100459.38;5056005;28;20043;-69
2021/08/02 01:24:13;;;;;;;6.35;1.50;;;;;;;12.94;85.73;100460.56;5073254;28;20044;-69
2021/08/02 01:26:44;;;;;;;3.65;1.60;;;;;;;12.99;85.81;100463.53;5072055;28;20599;-69
2021/08/02 01:29:58;;;;;;;4.30;2.08;;;;;;;13.01;85.71;100466.84;5056618;28;20078;-69
2021/08/02 01:32:24;;;;;;;8.15;1.52;;;;;;;13.00;85.75;100465.22;5072962;28;20021;-69
2021/08/02 01:34:55;;;;;;;7.47;2.20;;;;;;;12.98;85.96;100468.06;5072278;28;20854;-69
2021/08/02 01:37:21;;;;;;;3.97;1.73;;;;;;;12.99;86.08;100469.72;5072791;28;20106;-69
2021/08/02 01:39:52;;;;;;;3.03;1.65;;;;;;;13.00;86.47;100471.38;5072174;28;20040;-69
2021/08/02 01:42:17;;;;;;;8.73;1.92;;;;;;;13.01;86.39;100467.69;5072824;28;20063;-69
2021/08/02 01:44:43;;;;;;;4.50;1.80;;;;;;;12.97;86.19;100461.06;5072753;28;20128;-70
2021/08/02 01:47:36;;;;;;;4.45;1.85;;;;;;;12.96;86.50;100472.78;5070498;28;20064;-69
2021/08/02 01:50:06;;;;;;;8.95;2.40;;;;;;;12.97;86.61;100469.09;5071919;28;20040;-69
2021/08/02 01:52:41;;;;;;;6.65;2.40;;;;;;;12.96;86.61;100471.94;5072674;28;20090;-69
2021/08/02 01:55:17;;;;;;;11.20;2.65;;;;;;;12.96;86.84;100467.41;5071809;28;20032;-69
2021/08/02 01:57:59;;;;;;;3.20;1.63;;;;;;;13.00;86.59;100462.53;5054941;28;20040;-69
2021/08/02 02:00:36;;;;;;;6.10;2.00;;;;;;;12.85;87.30;100462.50;5071146;28;20063;-69
2021/08/02 02:03:11;;;;;;;7.95;3.00;;;;;;;12.80;88.23;100464.91;5071472;28;20090;-69
2021/08/02 02:06:10;;;;;;;10.85;2.53;;;;;;;12.74;88.13;100468.34;5071596;28;20025;-69
2021/08/02 02:08:46;;;;;;;9.32;2.03;;;;;;;12.72;88.33;100462.34;5071354;28;20036;-69
2021/08/02 02:11:22;;;;;;;6.50;2.17;;;;;;;12.70;88.38;100470.53;5071710;28;20123;-69
2021/08/02 02:13:58;;;;;;;6.70;1.88;;;;;;;12.77;87.93;100473.31;5072232;28;20043;-69
2021/08/02 02:16:26;;;;;;;4.00;1.27;;;;;;;12.76;88.26;100474.31;5071177;28;20074;-69
2021/08/02 02:18:56;;;;;;;6.20;1.65;;;;;;;12.75;87.98;100483.38;5054791;28;20107;-69
2021/08/02 02:21:26;;;;;;;4.63;1.55;;;;;;;12.82;87.75;100487.00;5072264;28;20035;-69
2021/08/02 02:23:55;;;;;;;5.75;2.10;;;;;;;12.81;87.54;100485.34;5054833;28;20060;-69
2021/08/02 02:26:22;;;;;;;;;;;;;;;12.84;87.75;100482.28;5071554;28;20115;-69
2021/08/02 02:28:48;;;;;;;7.20;1.92;;;;;;;12.84;87.31;100487.66;5072022;28;19912;-69
2021/08/02 02:31:15;;;;;;;9.18;2.17;;;;;;;12.85;87.28;100491.97;5071353;28;20086;-69
2021/08/02 02:33:45;;;;;;;6.32;1.70;;;;;;;12.85;87.83;100487.47;5071866;28;20111;-69
2021/08/02 02:36:14;;;;;;;6.32;1.90;;;;;;;12.90;87.94;100492.28;5070898;28;20025;-70
2021/08/02 02:38:40;;;;;;;7.18;1.98;;;;;;;12.87;87.76;100487.28;5054473;28;20032;-69
2021/08/02 02:41:06;;;;;;;8.23;2.00;;;;;;;12.84;87.64;100480.44;5071256;28;20036;-69
2021/08/02 02:43:36;;;;;;;7.53;1.52;;;;;;;12.90;87.79;100481.56;5070617;28;20052;-70
2021/08/02 02:46:02;;;;;;;5.18;1.98;;;;;;;12.82;87.96;100474.41;5071566;28;20024;-69
2021/08/02 02:48:28;;;;;;;6.63;2.20;;;;;;;12.92;88.40;100478.69;5070736;28;20098;-69
2021/08/02 02:50:57;;;;;;;12.93;2.25;;;;;;;12.96;88.50;100482.66;5070933;28;20523;-69
2021/08/02 02:53:25;;;;;;;4.10;1.90;;;;;;;13.05;88.62;100485.06;5071618;28;20028;-69
2021/08/02 02:55:53;;;;;;;7.05;1.90;;;;;;;13.05;88.37;100495.78;5070176;28;20040;-69
2021/08/02 02:58:19;;;;;;;8.73;1.73;;;;;;;13.18;88.38;100486.25;5070731;28;20032;-69
2021/08/02 03:00:46;;;;;;;5.60;1.95;;;;;;;13.20;87.33;100487.72;5070432;28;20035;-69
2021/08/02 03:03:18;;;;;;;6.68;2.30;;;;;;;13.19;87.75;100490.63;5071473;28;20097;-69
2021/08/02 03:05:44;;;;;;;5.30;1.55;;;;;;;13.17;88.05;100498.00;5070063;28;20039;-69
2021/08/02 03:08:14;;;;;;;10.40;2.20;;;;;;;13.20;88.21;100494.94;5070684;28;20020;-69
2021/08/02 03:10:40;;;;;;;8.38;1.90;;;;;;;13.13;88.89;100491.34;5069868;28;20042;-69
2021/08/02 03:13:05;;;;;;;9.32;2.25;;;;;;;13.14;88.72;100482.31;5070883;28;20028;-69
2021/08/02 03:15:31;;;;;;;2.47;1.67;;;;;;;13.20;88.35;100500.31;5070066;28;20487;-70
2021/08/02 03:17:56;;;;;;;7.07;2.27;;;;;;;13.17;88.54;100496.16;5070214;28;20453;-69
2021/08/02 03:20:22;;;;;;;7.00;2.47;;;;;;;13.11;88.60;100504.94;5070114;28;20028;-69
2021/08/02 03:22:55;;;;;;;5.13;2.17;;;;;;;13.16;88.64;100507.03;5071145;28;20040;-70
2021/08/02 03:25:33;;;;;;;5.82;1.88;;;;;;;13.18;88.68;100502.34;5053148;28;20060;-69
2021/08/02 03:28:04;;;;;;;8.07;2.08;;;;;;;13.28;88.71;100505.63;5070320;28;20042;-69
2021/08/02 03:30:31;;;;;;;7.95;1.90;;;;;;;13.24;88.89;100506.97;5069936;28;20093;-69
2021/08/02 03:32:59;;;;;;;7.38;2.08;;;;;;;13.17;88.84;100509.56;5071097;28;20039;-69
2021/08/02 03:35:25;;;;;;;6.68;2.20;;;;;;;13.24;89.45;100509.66;5070521;28;20040;-69
2021/08/02 03:37:52;;;;;;;7.33;1.97;;;;;;;13.18;89.67;100511.22;5070716;28;20538;-69
2021/08/02 03:40:19;;;;;;;7.15;2.47;;;;;;;13.25;89.42;100513.97;5070141;28;20105;-70
2021/08/02 03:42:45;;;;;;;4.72;1.92;;;;;;;13.24;89.89;100520.38;5069565;28;20036;-70
2021/08/02 03:45:13;;;;;;;10.35;2.63;;;;;;;13.22;90.73;100511.69;5069779;28;20194;-70
2021/08/02 03:47:40;;;;;;;10.48;2.85;;;;;;;13.27;91.10;100509.25;5069476;28;20412;-70
2021/08/02 03:50:06;;;;;;;10.75;2.95;;;;;;;13.17;91.07;100511.41;5069849;28;20050;-70
2021/08/02 03:52:32;;;;;;;13.80;2.97;;;;;;;13.09;91.66;100498.94;5069473;28;20032;-70
2021/08/02 03:54:58;;;;;;;11.30;2.77;;;;;;;13.16;92.12;100507.03;5069775;28;20061;-70
2021/08/02 03:57:24;;;;;;;12.38;2.97;;;;;;;12.99;91.84;100507.22;5052472;28;20036;-70
2021/08/02 03:59:51;;;;;;;10.88;2.90;;;;;;;13.04;92.41;100504.00;5070694;28;20071;-70
2021/08/02 04:02:16;;;;;;;;;;;;;;;12.97;92.14;100508.44;5069801;28;20033;-70
2021/08/02 04:04:43;;;;;;;6.93;2.00;;;;;;;12.97;91.90;100511.97;5069218;28;20349;-70
2021/08/02 04:07:08;;;;;;;10.07;3.40;;;;;;;12.93;91.85;100524.06;5069273;28;20094;-70
2021/08/02 04:09:33;;;;;;;11.23;3.27;;;;;;;12.91;91.66;100514.53;5069624;28;20029;-69
2021/08/02 04:11:59;;;;;;;8.17;1.77;;;;;;;12.90;92.03;100511.03;5069150;28;20040;-69
2021/08/02 04:14:24;;;;;;;4.20;2.27;;;;;;;12.94;92.06;100514.16;5070418;28;20082;-70
2021/08/02 04:16:49;;;;;;;6.03;1.87;;;;;;;12.99;91.81;100512.59;5070324;28;20048;-70
2021/08/02 04:19:15;;;;;;;17.47;3.40;;;;;;;13.00;91.74;100518.81;5052397;28;20093;-70
2021/08/02 04:21:41;;;;;;;8.17;2.47;;;;;;;12.99;91.40;100527.84;5070358;28;20040;-69
2021/08/02 04:24:06;;;;;;;7.07;2.20;;;;;;;12.97;91.12;100541.44;5068805;28;20025;-70
2021/08/02 04:26:32;;;;;;;9.60;2.17;;;;;;;12.96;90.57;100528.22;5069086;28;20048;-70
2021/08/02 04:28:57;;;;;;;10.13;2.43;;;;;;;13.02;90.81;100525.63;5069635;28;20036;-70
2021/08/02 04:31:30;;;;;;;8.03;3.00;;;;;;;13.14;90.63;100527.88;5069382;28;20364;-70
2021/08/02 04:33:56;;;;;;;8.48;2.38;;;;;;;13.13;90.38;100528.88;5070016;28;20035;-70
2021/08/02 04:36:23;;;;;;;9.45;2.10;;;;;;;13.16;90.06;100528.50;5069876;28;20037;-69
2021/08/02 04:38:48;;;;;;;;;;;;;;;13.15;90.19;100535.72;5052919;28;20120;-69
2021/08/02 04:41:13;;;;;;;;;;;;;;;13.16;90.53;100526.66;5069853;28;19995;-70
2021/08/02 04:43:39;;;;;;;10.93;2.30;;;;;;;13.05;90.92;100527.13;5068996;28;20243;-70
2021/08/02 04:46:04;;;;;;;4.83;1.90;;;;;;;13.10;91.06;100530.91;5069784;28;20051;-70
2021/08/02 04:48:30;;;;;;;6.20;2.13;;;;;;;13.15;91.56;100537.56;5069983;28;20036;-70
2021/08/02 04:50:55;;;;;;;11.37;2.57;;;;;;;13.19;91.56;100530.81;5069475;28;20094;-70
2021/08/02 04:53:20;;;;;;;6.20;1.80;;;;;;;13.14;91.05;100530.56;5069080;28;20452;-70
2021/08/02 04:55:46;;;;;;;7.80;2.30;;;;;;;13.21;91.04;100531.47;5069560;28;20028;-70
2021/08/02 04:58:11;;;;;;;8.50;2.57;;;;;;;13.25;91.16;100533.59;5070141;28;20112;-70
2021/08/02 05:00:37;;;;;;;8.77;2.40;;;;;;;13.54;91.91;100536.47;5068851;28;20454;-70
2021/08/02 05:03:02;;;;;;;5.23;2.03;;;;;;;13.54;90.38;100542.66;5069040;28;20445;-71
2021/08/02 05:05:28;;;;;;;10.23;2.87;;;;;;;13.59;88.69;100544.78;5069641;28;20032;-70
2021/08/02 05:07:54;;;;;;;11.57;3.03;;;;;;;13.50;89.46;100552.91;5068829;28;20427;-70
2021/08/02 05:10:20;;;;;;;4.53;1.98;;;;;;;13.61;89.08;100553.47;5069750;28;20024;-70
2021/08/02 05:12:45;;;;;;;9.38;2.25;;;;;;;13.57;88.74;100546.81;5052122;28;20093;-70
2021/08/02 05:15:12;;;;;;;5.67;2.37;;;;;;;13.72;89.14;100555.69;5069470;28;20033;-70
2021/08/02 05:17:39;;;;;;;13.35;2.40;;;;;;;13.58;89.00;100551.16;5068614;28;20482;-70
2021/08/02 05:20:06;;;;;;;5.30;2.08;;;;;;;13.61;89.23;100548.94;5069503;28;20078;-70
2021/08/02 05:22:32;;;;;;;6.85;2.17;;;;;;;13.73;88.37;100551.97;5051932;28;20040;-70
2021/08/02 05:24:58;;;;;;;7.80;2.03;;;;;;;13.78;87.41;100548.72;5068323;28;20029;-70
2021/08/02 05:27:23;;;;;;;14.17;2.20;;;;;;;13.65;87.46;100550.25;5069289;28;20040;-70
2021/08/02 05:29:48;;;;;;;5.37;2.40;;;;;;;13.66;87.75;100553.75;5069213;28;20115;-70
2021/08/02 05:32:17;;;;;;;10.83;2.30;;;;;;;13.69;88.06;100556.88;5066947;28;20058;-70
2021/08/02 05:34:43;;;;;;;10.07;3.25;;;;;;;13.87;88.09;100548.44;5069797;28;20033;-69
2021/08/02 05:37:09;;;;;;;13.77;3.35;;;;;;;14.31;87.02;100557.38;5054962;28;20381;-70
2021/08/02 05:39:35;;;;;;;4.32;2.00;;;;;;;15.12;83.52;100557.84;5073440;28;20110;-69
2021/08/02 05:42:01;;;;;;;11.55;2.05;;;;;;;16.20;80.15;100562.69;5072758;28;20032;-69
2021/08/02 05:44:26;;;;;;;7.00;1.73;;;;;;;16.65;77.02;100560.28;5072726;28;20858;-70
2021/08/02 05:46:52;;;;;;;6.27;1.90;;;;;;;16.55;76.26;100559.84;5054980;28;20363;-69
2021/08/02 05:49:18;;;;;;;6.95;2.00;;;;;;;17.47;71.50;100548.16;5071931;28;20101;-70
2021/08/02 05:51:43;;;;;;;8.03;1.73;;;;;;;17.11;73.94;100555.91;5071683;28;20105;-70
2021/08/02 05:54:08;;;;;;;6.20;1.67;;;;;;;17.25;71.76;100558.38;5055112;28;20036;-70
2021/08/02 05:56:34;;;;;;;3.90;1.50;;;;;;;17.16;72.72;100561.50;5071513;28;20036;-70
2021/08/02 05:58:59;;;;;;;7.20;1.50;;;;;;;17.00;72.49;100560.09;5072802;28;20056;-70
2021/08/02 06:01:24;;;;;;;7.20;2.00;;;;;;;16.51;75.18;100562.13;5072635;28;20119;-70
2021/08/02 06:03:50;;;;;;;8.57;2.07;;;;;;;17.36;72.87;100553.38;5072602;28;20120;-70
2021/08/02 06:06:16;;;;;;;7.40;1.55;;;;;;;16.92;73.03;100550.34;5072366;28;20638;-70
2021/08/02 06:08:42;;;;;;;9.32;2.38;;;;;;;16.45;74.00;100561.06;5072403;28;20606;-69
2021/08/02 06:11:08;;;;;;;4.43;1.70;;;;;;;17.52;72.66;100556.44;5072640;28;20044;-70
2021/08/02 06:13:33;;;;;;;3.23;1.57;;;;;;;17.99;68.58;100548.16;5072230;28;20028;-70
2021/08/02 06:15:59;;;;;;;5.90;2.17;;;;;;;17.97;68.33;100544.84;5072040;28;20291;-70
2021/08/02 06:18:24;;;;;;;5.73;2.03;;;;;;;19.11;65.49;100552.97;5071374;28;20044;-70
2021/08/02 06:20:49;;;;;;;2.63;0.83;;;;;;;18.51;66.75;100559.66;5072425;28;20929;-70
2021/08/02 06:23:15;;;;;;;6.47;1.30;;;;;;;18.23;69.45;100559.25;5054243;28;20135;-70
2021/08/02 06:25:40;;;;;;;4.27;1.23;;;;;;;18.58;67.55;100551.50;5071157;28;20024;-70
2021/08/02 06:28:05;;;;;;;3.90;1.40;;;;;;;17.92;69.88;100560.88;5070309;28;20117;-70
2021/08/02 06:30:31;;;;;;;5.17;1.80;;;;;;;19.35;64.93;100562.91;5071369;28;20071;-70
2021/08/02 06:32:56;;;;;;;2.53;1.23;;;;;;;18.66;67.40;100553.09;5070950;28;20020;-70
2021/08/02 06:35:21;;;;;;;3.87;1.07;;;;;;;18.66;67.31;100561.22;5070902;28;20047;-70
2021/08/02 06:37:47;;;;;;;12.70;1.80;;;;;;;19.02;66.48;100554.31;5071722;28;20052;-70
2021/08/02 06:40:14;;;;;;;5.43;1.30;;;;;;;19.01;66.68;100555.34;5070953;28;20029;-71
2021/08/02 06:42:40;;;;;;;5.18;1.40;;;;;;;18.12;69.43;100564.31;5071920;28;20124;-70
2021/08/02 06:45:07;;;;;;;9.38;1.33;;;;;;;18.13;70.47;100571.34;5071430;28;20029;-70
2021/08/02 06:47:32;;;;;;;5.85;1.52;;;;;;;17.99;69.33;100572.47;5070667;28;20093;-70
2021/08/02 06:49:58;;;;;;;3.03;1.30;;;;;;;17.84;69.74;100569.22;5070624;28;20723;-70
2021/08/02 06:52:23;;;;;;;9.53;1.60;;;;;;;17.12;71.34;100566.50;5071682;28;20044;-70
2021/08/02 06:54:49;;;;;;;6.10;1.80;;;;;;;16.86;73.96;100568.19;5070431;28;20047;-70
2021/08/02 06:57:14;;;;;;;7.27;1.63;;;;;;;16.38;74.19;100571.00;5070604;28;20040;-70
2021/08/02 06:59:40;;;;;;;6.57;1.60;;;;;;;15.90;78.97;100571.13;5071538;28;20044;-71
2021/08/02 07:02:06;;;;;;;8.95;1.92;;;;;;;15.36;82.70;100577.25;5070713;28;20036;-71
2021/08/02 07:04:31;;;;;;;6.57;1.95;;;;;;;14.94;83.63;100579.03;5071036;28;20036;-71
2021/08/02 07:06:57;;;;;;;10.10;2.93;;;;;;;14.58;86.79;100582.63;5071272;28;20113;-71
2021/08/02 07:09:22;;;;;;;7.80;2.90;;;;;;;14.64;88.04;100586.44;5071032;28;20107;-70
2021/08/02 07:11:47;;;;;;;8.90;2.77;;;;;;;14.41;89.30;100592.78;5071311;28;20032;-70
2021/08/02 07:14:13;;;;;;;7.83;2.00;;;;;;;14.46;89.31;100592.22;5070311;28;20052;-71
2021/08/02 07:16:38;;;;;;;14.60;2.90;;;;;;;15.21;90.00;100588.09;5052641;28;20024;-70
2021/08/02 07:19:04;;;;;;;14.33;2.70;;;;;;;16.50;87.59;100591.97;5069399;28;20033;-70
2021/08/02 07:21:29;;;;;;;8.43;2.40;;;;;;;17.58;79.58;100594.41;5070376;28;20683;-70
2021/08/02 07:23:55;;;;;;;9.47;1.80;;;;;;;18.76;77.79;100588.63;5070713;28;20029;-70
2021/08/02 07:26:20;;;;;;;7.73;1.77;;;;;;;19.59;73.64;100574.69;5069821;28;20048;-70
2021/08/02 07:28:46;;;;;;;5.45;1.75;;;;;;;19.50;73.66;100586.91;5053121;28;20036;-70
2021/08/02 07:31:11;;;;;;;4.70;2.37;;;;;;;18.53;74.94;100595.44;5070913;28;20568;-70
2021/08/02 07:33:38;;;;;;;5.53;2.07;;;;;;;17.24;75.67;100596.38;5069826;28;20589;-70
2021/08/02 07:36:04;;;;;;;7.55;2.38;;;;;;;16.84;76.26;100586.44;5070243;28;20458;-70
2021/08/02 07:38:30;;;;;;;6.80;1.92;;;;;;;16.55;78.31;100594.88;5069994;28;20039;-70
2021/08/02 07:40:55;;;;;;;7.30;2.20;;;;;;;16.22;79.93;100598.34;5070755;28;20036;-70
2021/08/02 07:43:21;;;;;;;10.20;4.00;;;;;;;16.24;81.20;100596.28;5070762;28;20036;-70
2021/08/02 07:45:47;;;;;;;5.72;2.28;;;;;;;17.26;78.51;100597.00;5069500;28;20110;-70
2021/08/02 07:48:12;;;;;;;9.53;2.10;;;;;;;17.25;79.01;100598.00;5069296;28;20143;-70
2021/08/02 07:50:37;;;;;;;7.20;1.60;;;;;;;16.87;77.19;100593.28;5069666;28;20037;-70
2021/08/02 07:53:03;;;;;;;7.90;1.80;;;;;;;17.81;75.67;100591.25;5070291;28;20043;-70
2021/08/02 07:55:28;;;;;;;5.75;1.92;;;;;;;18.50;74.81;100590.47;5070441;28;20138;-70
2021/08/02 07:57:54;;;;;;;7.90;1.83;;;;;;;18.52;70.04;100588.38;5051908;28;20036;-70
2021/08/02 08:00:19;;;;;;;2.57;1.10;;;;;;;19.04;66.79;100588.19;5070594;28;20025;-71
2021/08/02 08:02:45;;;;;;;3.23;1.03;;;;;;;19.60;67.09;100584.50;5069128;28;20036;-71
2021/08/02 08:05:11;;;;;;;5.60;1.10;;;;;;;20.22;62.48;100578.09;5070203;28;20029;-71
2021/08/02 08:07:48;;;;;;;6.82;1.45;;;;;;;20.04;64.47;100584.38;5052401;28;20032;-70
2021/08/02 08:10:16;;;;;;;3.88;1.40;;;;;;;20.29;63.13;100581.53;5069521;28;20040;-70
2021/08/02 08:12:42;;;;;;;6.13;1.35;;;;;;;20.14;62.00;100575.72;5069142;28;20036;-71
2021/08/02 08:15:08;;;;;;;2.37;1.03;;;;;;;19.12;66.59;100577.06;5069450;28;20031;-71
2021/08/02 08:17:33;;;;;;;4.72;1.90;;;;;;;18.39;67.71;100590.34;5068787;28;20496;-71
2021/08/02 08:19:59;;;;;;;3.47;0.98;;;;;;;17.87;66.32;100576.91;5070079;28;20036;-71
2021/08/02 08:22:26;;;;;;;6.63;1.40;;;;;;;17.52;71.21;100593.41;5070076;28;20107;-71
2021/08/02 08:24:52;;;;;;;6.03;1.58;;;;;;;17.19;69.92;100591.59;5052108;28;20032;-71
2021/08/02 08:27:18;;;;;;;2.85;1.00;;;;;;;17.21;72.25;100589.53;5069817;28;20040;-71
2021/08/02 08:29:43;;;;;;;3.80;1.07;;;;;;;17.33;71.16;100595.09;5069946;28;20154;-70
2021/08/02 08:32:08;;;;;;;4.03;1.20;;;;;;;17.73;72.63;100590.41;5069890;28;20036;-71
2021/08/02 08:34:34;;;;;;;5.40;1.20;;;;;;;18.10;71.50;100582.59;5052084;28;20029;-71
2021/08/02 08:36:59;;;;;;;16.17;1.30;;;;;;;18.37;68.08;100597.81;5069828;28;20044;-71
2021/08/02 08:39:24;;;;;;;4.47;1.23;;;;;;;18.51;66.38;100594.81;5069974;28;20119;-71
2021/08/02 08:41:51;;;;;;;5.73;1.20;;;;;;;18.76;65.41;100602.13;5069057;28;20040;-71
2021/08/02 08:44:18;;;;;;;5.20;1.42;;;;;;;19.19;61.16;100595.94;5069553;28;20039;-70
2021/08/02 08:46:44;;;;;;;4.10;0.90;;;;;;;18.51;63.98;100600.22;5069644;28;20028;-70
2021/08/02 08:49:09;;;;;;;5.47;1.60;;;;;;;18.41;67.57;100610.69;5068811;28;20473;-70
2021/08/02 08:51:38;;;;;;;5.90;1.03;;;;;;;18.06;67.21;100592.19;5069875;28;20111;-70
2021/08/02 08:54:05;;;;;;;4.03;1.27;;;;;;;17.84;69.97;100607.00;5069455;28;20028;-71
2021/08/02 08:56:31;;;;;;;5.32;1.10;;;;;;;18.22;70.40;100608.94;5069667;28;20377;-70
2021/08/02 08:58:56;;;;;;;8.32;1.75;;;;;;;18.59;65.14;100609.09;5069754;28;20033;-71
2021/08/02 09:01:27;;;;;;;3.27;1.50;;;;;;;18.96;68.83;100612.81;5068608;28;20044;-71
2021/08/02 09:03:54;;;;;;;2.78;1.50;;;;;;;18.71;65.95;100616.31;5068724;28;20066;-70
2021/08/02 09:06:19;;;;;;;4.97;1.52;;;;;;;19.87;64.26;100615.88;5069314;28;20020;-71
2021/08/02 09:08:46;;;;;;;5.30;1.50;;;;;;;20.34;61.63;100607.97;5069895;28;20515;-71
2021/08/02 09:11:20;;;;;;;3.58;1.10;;;;;;;20.23;60.35;100607.69;5072086;28;20086;-71
2021/08/02 09:13:45;;;;;;;5.18;1.25;;;;;;;19.03;64.63;100607.34;5073462;28;20116;-71
2021/08/02 09:16:17;;;;;;;2.73;1.70;;;;;;;18.43;66.75;100624.81;5073111;28;20444;-71
2021/08/02 09:18:56;;;;;;;5.13;1.23;;;;;;;17.13;72.17;100630.19;5073547;28;20040;-72
2021/08/02 09:21:21;;;;;;;4.53;1.40;;;;;;;17.14;75.76;100615.69;5055697;28;20037;-72
2021/08/02 09:23:51;;;;;;;4.22;1.60;;;;;;;16.39;78.53;100623.06;5072421;28;20468;-72
2021/08/02 09:26:38;;;;;;;4.75;1.67;;;;;;;16.68;81.27;100616.47;5055135;28;20036;-72
2021/08/02 09:29:05;;;;;;;5.70;1.65;;;;;;;16.86;79.18;100622.09;5073318;28;20051;-72
2021/08/02 09:31:45;;;;;;;;;;;;;;;16.66;76.97;100613.13;5072622;28;20420;-72
2021/08/02 09:34:11;;;;;;;4.47;1.40;;;;;;;17.03;75.43;100619.81;5072211;28;19916;-71
2021/08/02 09:36:37;;;;;;;3.75;1.27;;;;;;;17.37;76.15;100622.47;5055059;28;20025;-71
2021/08/02 09:39:21;;;;;;;5.22;1.50;;;;;;;17.55;73.37;100621.84;5072827;28;20427;-72
2021/08/02 09:41:47;;;;;;;7.90;1.50;;;;;;;17.99;73.23;100629.19;5071822;28;20040;-71
2021/08/02 09:44:21;;;;;;;5.03;1.80;;;;;;;18.42;73.04;100625.84;5071945;28;20029;-71
2021/08/02 09:46:53;;;;;;;4.82;1.50;;;;;;;18.46;70.31;100627.06;5071637;28;20044;-71
2021/08/02 09:49:18;;;;;;;4.85;1.20;;;;;;;19.12;69.22;100630.38;5071990;28;20098;-71
2021/08/02 09:51:44;;;;;;;3.43;1.63;;;;;;;18.56;69.93;100618.50;5071793;28;20032;-72
2021/08/02 09:54:09;;;;;;;1.47;0.90;;;;;;;19.48;66.90;100623.34;5072894;28;20059;-71
2021/08/02 09:56:36;;;;;;;6.17;1.60;;;;;;;19.52;63.30;100627.28;5071480;28;20040;-71
2021/08/02 09:59:02;;;;;;;3.50;1.25;;;;;;;19.87;65.34;100627.53;5072905;28;20028;-71
2021/08/02 10:01:28;;;;;;;5.28;1.50;;;;;;;20.23;62.05;100620.44;5072572;28;20123;-71
2021/08/02 10:03:54;;;;;;;3.90;1.27;;;;;;;20.56;63.37;100627.28;5072398;28;20123;-71
2021/08/02 10:06:19;;;;;;;5.05;1.23;;;;;;;21.44;59.32;100626.44;5071351;28;20036;-71
2021/08/02 10:08:44;;;;;;;4.10;1.30;;;;;;;22.26;58.22;100622.72;5071481;28;20040;-71
2021/08/02 10:11:10;;;;;;;5.10;1.63;;;;;;;22.12;57.31;100629.50;5071653;28;20047;-71
2021/08/02 10:13:40;;;;;;;3.75;1.48;;;;;;;20.85;60.32;100629.13;5071328;28;20055;-70
2021/08/02 10:16:08;;;;;;;1.75;0.80;;;;;;;21.42;57.16;100639.47;5071051;28;20381;-71
2021/08/02 10:18:34;;;;;;;2.95;1.13;;;;;;;20.79;52.90;100635.50;5071164;28;20115;-70
2021/08/02 10:21:10;;;;;;;2.97;0.73;;;;;;;19.32;56.46;100638.31;5071751;28;20059;-70
2021/08/02 10:23:38;;;;;;;2.78;0.70;;;;;;;18.79;58.29;100639.56;5072040;28;20518;-71
2021/08/02 10:26:03;;;;;;;2.80;0.98;;;;;;;18.69;60.52;100639.22;5070961;28;20041;-70
2021/08/02 10:28:29;;;;;;;4.57;1.25;;;;;;;18.96;62.31;100640.72;5070498;28;20101;-70
2021/08/02 10:31:03;;;;;;;2.77;1.23;;;;;;;18.64;62.08;100647.16;5072307;28;20038;-71
2021/08/02 10:33:36;;;;;;;2.25;0.88;;;;;;;18.77;62.33;100649.78;5071631;28;20042;-70
2021/08/02 10:36:16;;;;;;;2.67;1.10;;;;;;;18.16;65.49;100647.63;5054043;28;20071;-71
2021/08/02 10:38:44;;;;;;;5.93;1.52;;;;;;;18.37;64.86;100650.00;5070899;28;20028;-71
2021/08/02 10:41:10;;;;;;;7.25;1.27;;;;;;;18.75;63.04;100643.72;5072106;28;20036;-71
2021/08/02 10:43:37;;;;;;;3.53;1.05;;;;;;;19.34;63.10;100650.56;5071671;28;20063;-71
2021/08/02 10:46:27;;;;;;;4.63;1.02;;;;;;;19.07;63.44;100641.84;5070237;28;20456;-71
2021/08/02 10:49:07;;;;;;;5.70;2.20;;;;;;;19.51;63.11;100644.59;5071580;28;20127;-71
2021/08/02 10:51:43;;;;;;;5.00;0.88;;;;;;;20.03;58.85;100650.47;5071861;28;20471;-70
2021/08/02 10:54:09;;;;;;;4.70;1.13;;;;;;;21.17;57.59;100645.09;5070172;28;20457;-71
2021/08/02 10:56:34;;;;;;;2.67;1.10;;;;;;;22.04;56.79;100657.09;5070588;28;20031;-71
2021/08/02 10:59:00;;;;;;;1.13;0.80;;;;;;;22.63;53.16;100654.97;5071556;28;20115;-71
2021/08/02 11:01:27;;;;;;;3.80;1.58;;;;;;;23.70;51.32;100649.59;5071346;28;20448;-71
2021/08/02 11:03:56;;;;;;;1.80;0.63;;;;;;;22.75;51.04;100644.84;5071351;28;20499;-71
2021/08/02 11:06:22;;;;;;;3.38;0.60;;;;;;;23.14;49.70;100642.25;5069974;28;20021;-71
2021/08/02 11:08:49;;;;;;;1.38;0.60;;;;;;;22.39;74.72;100656.16;5071333;28;20549;-71
2021/08/02 11:11:26;;;;;;;1.85;0.70;;;;;;;22.62;47.15;100652.53;5070200;28;20412;-71
2021/08/02 11:14:04;;;;;;;6.88;1.20;;;;;;;24.59;47.62;100645.78;5070426;28;20456;-71
2021/08/02 11:16:30;;;;;;;1.55;0.57;;;;;;;23.79;49.22;100645.41;5070462;28;20047;-72
2021/08/02 11:18:55;;;;;;;2.72;0.90;;;;;;;23.26;48.48;100652.25;5070359;28;20025;-71
2021/08/02 11:21:26;;;;;;;1.57;0.63;;;;;;;22.14;52.08;100660.81;5070615;28;20036;-71
2021/08/02 11:23:54;;;;;;;3.13;1.10;;;;;;;21.71;36.86;100644.97;5071056;28;20071;-71
2021/08/02 11:26:21;;;;;;;5.95;1.02;;;;;;;21.79;27.19;100657.38;5069528;28;20430;-71
2021/08/02 11:28:49;;;;;;;5.55;1.50;;;;;;;22.11;51.30;100668.66;5069605;28;20098;-71
2021/08/02 11:31:15;;;;;;;4.32;0.98;;;;;;;22.22;38.46;100659.66;5070476;28;20510;-71